Карточка аэропорта UAKK

Внимание!
Информация на этой странице в стадии наполнения.
Если вы не увидели какой-то информации, или заметили неточность - пожалуйста сообщите нам!
Спасибо!
Команда RU-STAFF
Название аэропортаКараганда
Название аэропорта (англ.)Karaganda
Превышение1768 ft. (538.9 m.)
Координаты49°40.302', 73°20.118'
Высота перехода10000
Эшелон переходаby ATC
Коды ответчика0630-0637, 7220-7227
Зона ОрВДНур-Султан РПИ (UACN)
Данные METARUAKK 241530Z 12002MPS CAVOK M03/M11 Q1029 R05/0///70 NOSIG RMK QFE724/0965
Проноз погоды (TAF)UAKK 241101Z 2412/2512 VRB02MPS 9999 SCT030 BKN100 TX15/2510Z TNM09/2424Z BECMG 2420/2422 3100 BR SCT011 TEMPO 2420/2503 0300 FZFG VV002 BECMG 2504/2506 9999 NSW SCT020
NOTAMshow/hide NOTAM
AWOS   TABLE

Информация о ВПП

ВПП Длина ВПП (м.) Покрытие Курс ВПП Частота ILS
053601Железобетон50109.9
233601Железобетон230111.7

Диспетчерские позиции




Спутниковое изображение